sensor_id;sensor_type;location;lat;lon;timestamp;temperature;humidity
24678;DHT22;12800;53.094;8.778;2023-04-12T00:01:56;8.00;78.80
24678;DHT22;12800;53.094;8.778;2023-04-12T00:04:21;8.00;78.80
24678;DHT22;12800;53.094;8.778;2023-04-12T00:06:51;8.00;78.70
24678;DHT22;12800;53.094;8.778;2023-04-12T00:09:19;8.00;78.40
24678;DHT22;12800;53.094;8.778;2023-04-12T00:11:44;8.10;78.10
24678;DHT22;12800;53.094;8.778;2023-04-12T00:14:11;8.00;77.90
24678;DHT22;12800;53.094;8.778;2023-04-12T00:16:36;8.00;77.90
24678;DHT22;12800;53.094;8.778;2023-04-12T00:19:03;8.10;77.90
24678;DHT22;12800;53.094;8.778;2023-04-12T00:21:29;8.10;77.90
24678;DHT22;12800;53.094;8.778;2023-04-12T00:23:55;8.10;77.50
24678;DHT22;12800;53.094;8.778;2023-04-12T00:26:21;8.10;77.30
24678;DHT22;12800;53.094;8.778;2023-04-12T00:28:47;8.10;77.10
24678;DHT22;12800;53.094;8.778;2023-04-12T00:31:13;8.20;77.10
24678;DHT22;12800;53.094;8.778;2023-04-12T00:33:38;8.20;77.30
24678;DHT22;12800;53.094;8.778;2023-04-12T00:36:04;8.20;76.70
24678;DHT22;12800;53.094;8.778;2023-04-12T00:38:30;8.20;76.60
24678;DHT22;12800;53.094;8.778;2023-04-12T00:40:56;8.20;76.60
24678;DHT22;12800;53.094;8.778;2023-04-12T00:43:22;8.20;76.50
24678;DHT22;12800;53.094;8.778;2023-04-12T00:45:52;8.20;76.40
24678;DHT22;12800;53.094;8.778;2023-04-12T00:48:18;8.20;76.40
24678;DHT22;12800;53.094;8.778;2023-04-12T00:50:44;8.30;76.10
24678;DHT22;12800;53.094;8.778;2023-04-12T00:53:12;8.30;75.90
24678;DHT22;12800;53.094;8.778;2023-04-12T00:55:48;8.30;75.90
24678;DHT22;12800;53.094;8.778;2023-04-12T00:58:14;8.30;75.80
24678;DHT22;12800;53.094;8.778;2023-04-12T01:00:40;8.30;75.90
24678;DHT22;12800;53.094;8.778;2023-04-12T01:03:06;8.30;75.80
24678;DHT22;12800;53.094;8.778;2023-04-12T01:05:42;8.30;75.50
24678;DHT22;12800;53.094;8.778;2023-04-12T01:08:31;8.30;75.30
24678;DHT22;12800;53.094;8.778;2023-04-12T01:11:17;8.30;75.60
24678;DHT22;12800;53.094;8.778;2023-04-12T01:13:52;8.30;75.80
24678;DHT22;12800;53.094;8.778;2023-04-12T01:16:41;8.40;75.10
24678;DHT22;12800;53.094;8.778;2023-04-12T01:27:41;8.30;74.90
24678;DHT22;12800;53.094;8.778;2023-04-12T01:30:12;8.30;74.90
24678;DHT22;12800;53.094;8.778;2023-04-12T01:32:39;8.30;75.00
24678;DHT22;12800;53.094;8.778;2023-04-12T01:35:07;8.30;74.90
24678;DHT22;12800;53.094;8.778;2023-04-12T01:37:35;8.30;75.00
24678;DHT22;12800;53.094;8.778;2023-04-12T01:40:01;8.30;74.90
24678;DHT22;12800;53.094;8.778;2023-04-12T01:42:30;8.30;74.90
24678;DHT22;12800;53.094;8.778;2023-04-12T01:44:56;8.40;74.80
24678;DHT22;12800;53.094;8.778;2023-04-12T01:47:22;8.40;74.60
24678;DHT22;12800;53.094;8.778;2023-04-12T01:50:21;8.40;74.50
24678;DHT22;12800;53.094;8.778;2023-04-12T01:53:17;8.40;74.20
24678;DHT22;12800;53.094;8.778;2023-04-12T01:55:46;8.40;74.10
24678;DHT22;12800;53.094;8.778;2023-04-12T01:58:16;8.50;74.00
24678;DHT22;12800;53.094;8.778;2023-04-12T02:00:45;8.50;73.90
24678;DHT22;12800;53.094;8.778;2023-04-12T02:03:11;8.50;73.90
24678;DHT22;12800;53.094;8.778;2023-04-12T02:05:37;8.50;73.80
24678;DHT22;12800;53.094;8.778;2023-04-12T02:08:04;8.50;73.50
24678;DHT22;12800;53.094;8.778;2023-04-12T02:10:31;8.50;73.50
24678;DHT22;12800;53.094;8.778;2023-04-12T02:13:00;8.50;73.60
24678;DHT22;12800;53.094;8.778;2023-04-12T02:15:27;8.50;73.60
24678;DHT22;12800;53.094;8.778;2023-04-12T02:17:53;8.50;73.60
24678;DHT22;12800;53.094;8.778;2023-04-12T02:20:22;8.50;73.60
24678;DHT22;12800;53.094;8.778;2023-04-12T02:22:48;8.50;73.50
24678;DHT22;12800;53.094;8.778;2023-04-12T02:25:14;8.40;73.30
24678;DHT22;12800;53.094;8.778;2023-04-12T02:27:43;8.30;73.40
24678;DHT22;12800;53.094;8.778;2023-04-12T02:30:08;8.40;73.80
24678;DHT22;12800;53.094;8.778;2023-04-12T02:32:34;8.30;73.70
24678;DHT22;12800;53.094;8.778;2023-04-12T02:35:09;8.30;73.70
24678;DHT22;12800;53.094;8.778;2023-04-12T02:37:35;8.30;73.90
24678;DHT22;12800;53.094;8.778;2023-04-12T02:40:02;8.30;73.90
24678;DHT22;12800;53.094;8.778;2023-04-12T02:42:30;8.30;73.90
24678;DHT22;12800;53.094;8.778;2023-04-12T02:44:56;8.30;73.70
24678;DHT22;12800;53.094;8.778;2023-04-12T02:47:21;8.30;73.60
24678;DHT22;12800;53.094;8.778;2023-04-12T02:49:52;8.30;73.60
24678;DHT22;12800;53.094;8.778;2023-04-12T02:52:18;8.30;73.60
24678;DHT22;12800;53.094;8.778;2023-04-12T02:54:44;8.20;73.50
24678;DHT22;12800;53.094;8.778;2023-04-12T02:57:09;8.20;73.70
24678;DHT22;12800;53.094;8.778;2023-04-12T02:59:36;8.20;73.70
24678;DHT22;12800;53.094;8.778;2023-04-12T03:02:01;8.20;74.60
24678;DHT22;12800;53.094;8.778;2023-04-12T03:04:27;8.20;73.90
24678;DHT22;12800;53.094;8.778;2023-04-12T03:06:54;8.20;73.90
24678;DHT22;12800;53.094;8.778;2023-04-12T03:09:21;8.20;74.00
24678;DHT22;12800;53.094;8.778;2023-04-12T03:11:47;8.20;74.00
24678;DHT22;12800;53.094;8.778;2023-04-12T03:14:13;8.20;74.10
24678;DHT22;12800;53.094;8.778;2023-04-12T03:16:38;8.10;74.00
24678;DHT22;12800;53.094;8.778;2023-04-12T03:19:04;8.10;74.20
24678;DHT22;12800;53.094;8.778;2023-04-12T03:21:31;8.10;74.10
24678;DHT22;12800;53.094;8.778;2023-04-12T03:23:58;8.10;74.20
24678;DHT22;12800;53.094;8.778;2023-04-12T03:26:24;8.10;74.20
24678;DHT22;12800;53.094;8.778;2023-04-12T03:29:02;8.10;74.20
24678;DHT22;12800;53.094;8.778;2023-04-12T03:31:33;8.10;74.20
24678;DHT22;12800;53.094;8.778;2023-04-12T03:34:00;8.10;74.20
24678;DHT22;12800;53.094;8.778;2023-04-12T03:36:26;8.10;74.40
24678;DHT22;12800;53.094;8.778;2023-04-12T03:38:52;8.10;74.30
24678;DHT22;12800;53.094;8.778;2023-04-12T03:41:20;8.00;74.30
24678;DHT22;12800;53.094;8.778;2023-04-12T03:43:45;8.10;74.40
24678;DHT22;12800;53.094;8.778;2023-04-12T03:46:11;8.10;74.50
24678;DHT22;12800;53.094;8.778;2023-04-12T03:48:40;8.10;74.40
24678;DHT22;12800;53.094;8.778;2023-04-12T03:51:06;8.10;74.30
24678;DHT22;12800;53.094;8.778;2023-04-12T03:53:33;8.20;75.10
24678;DHT22;12800;53.094;8.778;2023-04-12T03:55:59;8.20;74.30
24678;DHT22;12800;53.094;8.778;2023-04-12T03:58:24;8.10;74.20
24678;DHT22;12800;53.094;8.778;2023-04-12T04:00:50;8.10;74.10
24678;DHT22;12800;53.094;8.778;2023-04-12T04:03:17;8.10;74.10
24678;DHT22;12800;53.094;8.778;2023-04-12T04:05:43;8.10;74.30
24678;DHT22;12800;53.094;8.778;2023-04-12T04:08:09;8.10;74.20
24678;DHT22;12800;53.094;8.778;2023-04-12T04:10:35;8.10;74.20
24678;DHT22;12800;53.094;8.778;2023-04-12T04:13:00;8.00;74.10
24678;DHT22;12800;53.094;8.778;2023-04-12T04:15:26;8.00;74.30
24678;DHT22;12800;53.094;8.778;2023-04-12T04:17:52;8.00;74.50
24678;DHT22;12800;53.094;8.778;2023-04-12T04:20:18;8.00;74.40
24678;DHT22;12800;53.094;8.778;2023-04-12T04:22:45;8.00;74.50
24678;DHT22;12800;53.094;8.778;2023-04-12T04:25:13;7.90;74.50
24678;DHT22;12800;53.094;8.778;2023-04-12T04:27:41;7.90;74.50
24678;DHT22;12800;53.094;8.778;2023-04-12T04:30:09;7.90;74.60
24678;DHT22;12800;53.094;8.778;2023-04-12T04:32:36;7.90;74.60
24678;DHT22;12800;53.094;8.778;2023-04-12T04:35:02;7.90;74.60
24678;DHT22;12800;53.094;8.778;2023-04-12T04:37:28;7.90;74.70
24678;DHT22;12800;53.094;8.778;2023-04-12T04:40:00;7.80;74.70
24678;DHT22;12800;53.094;8.778;2023-04-12T04:42:26;7.80;74.70
24678;DHT22;12800;53.094;8.778;2023-04-12T04:44:54;7.80;75.60
24678;DHT22;12800;53.094;8.778;2023-04-12T04:47:27;7.80;74.90
24678;DHT22;12800;53.094;8.778;2023-04-12T04:49:55;7.80;74.80
24678;DHT22;12800;53.094;8.778;2023-04-12T04:52:22;7.70;75.00
24678;DHT22;12800;53.094;8.778;2023-04-12T04:54:48;7.70;74.90
24678;DHT22;12800;53.094;8.778;2023-04-12T04:57:14;7.70;75.00
24678;DHT22;12800;53.094;8.778;2023-04-12T04:59:40;7.70;75.10
24678;DHT22;12800;53.094;8.778;2023-04-12T05:02:06;7.70;75.20
24678;DHT22;12800;53.094;8.778;2023-04-12T05:04:32;7.70;75.20
24678;DHT22;12800;53.094;8.778;2023-04-12T05:06:57;7.70;75.30
24678;DHT22;12800;53.094;8.778;2023-04-12T05:09:23;7.70;75.00
24678;DHT22;12800;53.094;8.778;2023-04-12T05:11:48;7.70;75.10
24678;DHT22;12800;53.094;8.778;2023-04-12T05:14:15;7.70;75.10
24678;DHT22;12800;53.094;8.778;2023-04-12T05:16:40;7.80;75.10
24678;DHT22;12800;53.094;8.778;2023-04-12T05:19:06;7.80;75.10
24678;DHT22;12800;53.094;8.778;2023-04-12T05:21:32;7.80;75.00
24678;DHT22;12800;53.094;8.778;2023-04-12T05:23:58;7.90;75.00
24678;DHT22;12800;53.094;8.778;2023-04-12T05:26:24;7.90;74.80
24678;DHT22;12800;53.094;8.778;2023-04-12T05:28:50;8.00;74.80
24678;DHT22;12800;53.094;8.778;2023-04-12T05:31:16;8.00;74.70
24678;DHT22;12800;53.094;8.778;2023-04-12T05:33:42;8.10;74.60
24678;DHT22;12800;53.094;8.778;2023-04-12T05:36:09;8.20;74.30
24678;DHT22;12800;53.094;8.778;2023-04-12T05:38:35;8.20;74.60
24678;DHT22;12800;53.094;8.778;2023-04-12T05:41:01;8.30;74.60
24678;DHT22;12800;53.094;8.778;2023-04-12T05:43:30;8.40;74.80
24678;DHT22;12800;53.094;8.778;2023-04-12T05:45:57;8.40;74.70
24678;DHT22;12800;53.094;8.778;2023-04-12T05:48:23;8.50;74.50
24678;DHT22;12800;53.094;8.778;2023-04-12T05:50:52;8.50;74.50
24678;DHT22;12800;53.094;8.778;2023-04-12T05:53:18;8.60;74.30
24678;DHT22;12800;53.094;8.778;2023-04-12T05:55:44;8.60;74.20
24678;DHT22;12800;53.094;8.778;2023-04-12T05:58:10;8.70;74.40
24678;DHT22;12800;53.094;8.778;2023-04-12T06:00:37;8.80;74.60
24678;DHT22;12800;53.094;8.778;2023-04-12T06:03:03;8.80;74.10
24678;DHT22;12800;53.094;8.778;2023-04-12T06:05:29;8.90;74.10
24678;DHT22;12800;53.094;8.778;2023-04-12T06:07:54;9.00;73.80
24678;DHT22;12800;53.094;8.778;2023-04-12T06:10:20;9.00;73.70
24678;DHT22;12800;53.094;8.778;2023-04-12T06:12:46;9.10;73.70
24678;DHT22;12800;53.094;8.778;2023-04-12T06:15:12;9.10;73.70
24678;DHT22;12800;53.094;8.778;2023-04-12T06:17:37;9.10;73.60
24678;DHT22;12800;53.094;8.778;2023-04-12T06:20:04;9.20;73.80
24678;DHT22;12800;53.094;8.778;2023-04-12T06:22:34;9.20;73.80
24678;DHT22;12800;53.094;8.778;2023-04-12T06:25:00;9.20;73.40
24678;DHT22;12800;53.094;8.778;2023-04-12T06:27:25;9.20;73.20
24678;DHT22;12800;53.094;8.778;2023-04-12T06:29:51;9.20;72.90
24678;DHT22;12800;53.094;8.778;2023-04-12T06:32:17;9.20;72.90
24678;DHT22;12800;53.094;8.778;2023-04-12T06:34:43;9.20;72.80
24678;DHT22;12800;53.094;8.778;2023-04-12T06:37:08;9.20;72.80
24678;DHT22;12800;53.094;8.778;2023-04-12T06:39:34;9.20;72.80
24678;DHT22;12800;53.094;8.778;2023-04-12T06:42:01;9.30;72.80
24678;DHT22;12800;53.094;8.778;2023-04-12T06:44:27;9.30;72.60
24678;DHT22;12800;53.094;8.778;2023-04-12T06:46:52;9.40;72.60
24678;DHT22;12800;53.094;8.778;2023-04-12T06:49:18;9.40;72.50
24678;DHT22;12800;53.094;8.778;2023-04-12T06:51:44;9.40;72.40
24678;DHT22;12800;53.094;8.778;2023-04-12T06:54:10;9.40;72.30
24678;DHT22;12800;53.094;8.778;2023-04-12T06:56:36;9.40;72.20
24678;DHT22;12800;53.094;8.778;2023-04-12T06:59:02;9.50;72.40
24678;DHT22;12800;53.094;8.778;2023-04-12T07:01:28;9.50;72.10
24678;DHT22;12800;53.094;8.778;2023-04-12T07:03:53;9.60;72.20
24678;DHT22;12800;53.094;8.778;2023-04-12T07:06:19;9.70;72.20
24678;DHT22;12800;53.094;8.778;2023-04-12T07:08:45;9.70;71.80
24678;DHT22;12800;53.094;8.778;2023-04-12T07:11:10;9.80;71.80
24678;DHT22;12800;53.094;8.778;2023-04-12T07:13:36;9.90;71.70
24678;DHT22;12800;53.094;8.778;2023-04-12T07:16:02;10.00;71.80
24678;DHT22;12800;53.094;8.778;2023-04-12T07:18:28;10.00;71.50
24678;DHT22;12800;53.094;8.778;2023-04-12T07:20:54;10.10;71.40
24678;DHT22;12800;53.094;8.778;2023-04-12T07:23:21;10.20;71.30
24678;DHT22;12800;53.094;8.778;2023-04-12T07:25:47;10.20;71.20
24678;DHT22;12800;53.094;8.778;2023-04-12T07:28:13;10.30;71.10
24678;DHT22;12800;53.094;8.778;2023-04-12T07:30:39;10.40;70.90
24678;DHT22;12800;53.094;8.778;2023-04-12T07:33:05;10.50;70.90
24678;DHT22;12800;53.094;8.778;2023-04-12T07:35:31;10.60;70.70
24678;DHT22;12800;53.094;8.778;2023-04-12T07:37:57;10.60;71.30
24678;DHT22;12800;53.094;8.778;2023-04-12T07:40:23;10.70;70.40
24678;DHT22;12800;53.094;8.778;2023-04-12T07:42:49;10.80;70.40
24678;DHT22;12800;53.094;8.778;2023-04-12T07:45:15;10.90;70.40
24678;DHT22;12800;53.094;8.778;2023-04-12T07:47:41;11.00;70.20
24678;DHT22;12800;53.094;8.778;2023-04-12T07:50:07;11.00;70.10
24678;DHT22;12800;53.094;8.778;2023-04-12T07:52:33;11.00;69.90
24678;DHT22;12800;53.094;8.778;2023-04-12T07:54:59;11.10;70.00
24678;DHT22;12800;53.094;8.778;2023-04-12T07:57:25;11.10;70.00
24678;DHT22;12800;53.094;8.778;2023-04-12T07:59:51;11.10;70.10
24678;DHT22;12800;53.094;8.778;2023-04-12T08:02:17;11.10;70.00
24678;DHT22;12800;53.094;8.778;2023-04-12T08:04:51;11.10;70.30
24678;DHT22;12800;53.094;8.778;2023-04-12T08:07:17;11.20;70.80
24678;DHT22;12800;53.094;8.778;2023-04-12T08:09:42;11.20;71.10
24678;DHT22;12800;53.094;8.778;2023-04-12T08:12:08;11.30;71.50
24678;DHT22;12800;53.094;8.778;2023-04-12T08:14:33;11.30;71.60
24678;DHT22;12800;53.094;8.778;2023-04-12T08:16:59;11.40;71.80
24678;DHT22;12800;53.094;8.778;2023-04-12T08:19:25;11.50;71.80
24678;DHT22;12800;53.094;8.778;2023-04-12T08:21:50;11.60;72.00
24678;DHT22;12800;53.094;8.778;2023-04-12T08:24:16;11.60;72.00
24678;DHT22;12800;53.094;8.778;2023-04-12T08:26:42;11.70;72.10
24678;DHT22;12800;53.094;8.778;2023-04-12T08:29:08;11.80;72.90
24678;DHT22;12800;53.094;8.778;2023-04-12T08:31:33;11.80;72.20
24678;DHT22;12800;53.094;8.778;2023-04-12T08:33:59;11.80;72.40
24678;DHT22;12800;53.094;8.778;2023-04-12T08:36:25;11.80;72.40
24678;DHT22;12800;53.094;8.778;2023-04-12T08:38:52;11.70;72.70
24678;DHT22;12800;53.094;8.778;2023-04-12T08:41:20;11.70;73.00
24678;DHT22;12800;53.094;8.778;2023-04-12T08:43:46;11.70;73.20
24678;DHT22;12800;53.094;8.778;2023-04-12T08:46:13;11.70;73.50
24678;DHT22;12800;53.094;8.778;2023-04-12T08:48:46;11.70;73.90
24678;DHT22;12800;53.094;8.778;2023-04-12T08:51:22;11.70;74.10
24678;DHT22;12800;53.094;8.778;2023-04-12T08:53:47;11.70;74.70
24678;DHT22;12800;53.094;8.778;2023-04-12T08:56:14;11.70;74.90
24678;DHT22;12800;53.094;8.778;2023-04-12T08:58:43;11.70;75.40
24678;DHT22;12800;53.094;8.778;2023-04-12T09:01:11;11.70;75.90
24678;DHT22;12800;53.094;8.778;2023-04-12T09:03:41;11.70;76.00
24678;DHT22;12800;53.094;8.778;2023-04-12T09:06:07;11.60;76.80
24678;DHT22;12800;53.094;8.778;2023-04-12T09:08:33;11.60;76.40
24678;DHT22;12800;53.094;8.778;2023-04-12T09:10:59;11.60;76.80
24678;DHT22;12800;53.094;8.778;2023-04-12T09:13:32;11.60;76.90
24678;DHT22;12800;53.094;8.778;2023-04-12T09:15:58;11.60;77.20
24678;DHT22;12800;53.094;8.778;2023-04-12T09:18:24;11.50;77.30
24678;DHT22;12800;53.094;8.778;2023-04-12T09:21:05;11.60;77.60
24678;DHT22;12800;53.094;8.778;2023-04-12T09:23:31;11.60;77.70
24678;DHT22;12800;53.094;8.778;2023-04-12T09:25:57;11.60;78.00
24678;DHT22;12800;53.094;8.778;2023-04-12T09:28:24;11.60;78.10
24678;DHT22;12800;53.094;8.778;2023-04-12T09:30:51;11.60;78.20
24678;DHT22;12800;53.094;8.778;2023-04-12T09:33:20;11.60;78.30
24678;DHT22;12800;53.094;8.778;2023-04-12T09:35:47;11.60;78.40
24678;DHT22;12800;53.094;8.778;2023-04-12T09:38:13;11.60;78.60
24678;DHT22;12800;53.094;8.778;2023-04-12T09:40:39;11.50;78.60
24678;DHT22;12800;53.094;8.778;2023-04-12T09:43:05;11.50;79.60
24678;DHT22;12800;53.094;8.778;2023-04-12T09:45:35;11.50;78.80
24678;DHT22;12800;53.094;8.778;2023-04-12T09:48:03;11.40;79.10
24678;DHT22;12800;53.094;8.778;2023-04-12T09:50:30;11.40;79.30
24678;DHT22;12800;53.094;8.778;2023-04-12T09:52:58;11.50;79.70
24678;DHT22;12800;53.094;8.778;2023-04-12T09:55:27;11.50;79.80
24678;DHT22;12800;53.094;8.778;2023-04-12T09:57:54;11.60;80.20
24678;DHT22;12800;53.094;8.778;2023-04-12T10:00:22;11.60;80.10
24678;DHT22;12800;53.094;8.778;2023-04-12T10:02:51;11.70;80.20
24678;DHT22;12800;53.094;8.778;2023-04-12T10:05:21;11.70;80.20
24678;DHT22;12800;53.094;8.778;2023-04-12T10:07:50;11.70;80.20
24678;DHT22;12800;53.094;8.778;2023-04-12T10:10:17;11.70;80.20
24678;DHT22;12800;53.094;8.778;2023-04-12T10:12:45;11.70;80.40
24678;DHT22;12800;53.094;8.778;2023-04-12T10:15:11;11.70;80.30
24678;DHT22;12800;53.094;8.778;2023-04-12T10:18:03;11.70;81.30
24678;DHT22;12800;53.094;8.778;2023-04-12T10:20:31;11.70;80.70
24678;DHT22;12800;53.094;8.778;2023-04-12T10:22:57;11.60;80.90
24678;DHT22;12800;53.094;8.778;2023-04-12T10:25:26;11.60;81.10
24678;DHT22;12800;53.094;8.778;2023-04-12T10:27:54;11.60;81.40
24678;DHT22;12800;53.094;8.778;2023-04-12T10:30:21;11.60;81.60
24678;DHT22;12800;53.094;8.778;2023-04-12T10:38:22;11.70;82.00
24678;DHT22;12800;53.094;8.778;2023-04-12T10:41:16;11.70;81.90
24678;DHT22;12800;53.094;8.778;2023-04-12T10:43:47;11.70;81.90
24678;DHT22;12800;53.094;8.778;2023-04-12T10:49:11;11.70;82.00
24678;DHT22;12800;53.094;8.778;2023-04-12T10:51:38;11.70;81.90
24678;DHT22;12800;53.094;8.778;2023-04-12T10:56:44;11.70;82.10
24678;DHT22;12800;53.094;8.778;2023-04-12T10:59:10;11.60;81.90
24678;DHT22;12800;53.094;8.778;2023-04-12T11:01:37;11.60;82.00
24678;DHT22;12800;53.094;8.778;2023-04-12T11:04:20;11.50;82.20
24678;DHT22;12800;53.094;8.778;2023-04-12T11:22:12;11.50;82.90
24678;DHT22;12800;53.094;8.778;2023-04-12T11:24:52;11.50;82.90
24678;DHT22;12800;53.094;8.778;2023-04-12T11:27:19;11.50;82.90
24678;DHT22;12800;53.094;8.778;2023-04-12T11:29:54;11.50;83.00
24678;DHT22;12800;53.094;8.778;2023-04-12T11:32:25;11.50;83.00
24678;DHT22;12800;53.094;8.778;2023-04-12T11:34:53;11.60;83.10
24678;DHT22;12800;53.094;8.778;2023-04-12T11:37:19;11.60;83.20
24678;DHT22;12800;53.094;8.778;2023-04-12T11:39:46;11.60;83.40
24678;DHT22;12800;53.094;8.778;2023-04-12T11:42:15;11.60;83.60
24678;DHT22;12800;53.094;8.778;2023-04-12T11:44:45;11.60;83.70
24678;DHT22;12800;53.094;8.778;2023-04-12T11:47:21;11.60;83.80
24678;DHT22;12800;53.094;8.778;2023-04-12T11:49:53;11.60;83.80
24678;DHT22;12800;53.094;8.778;2023-04-12T11:52:20;11.60;83.90
24678;DHT22;12800;53.094;8.778;2023-04-12T11:54:50;11.50;83.60
24678;DHT22;12800;53.094;8.778;2023-04-12T11:57:20;11.50;83.90
24678;DHT22;12800;53.094;8.778;2023-04-12T11:59:47;11.50;84.10
24678;DHT22;12800;53.094;8.778;2023-04-12T12:02:14;11.50;84.10
24678;DHT22;12800;53.094;8.778;2023-04-12T12:04:46;11.50;84.30
24678;DHT22;12800;53.094;8.778;2023-04-12T12:07:14;11.50;84.60
24678;DHT22;12800;53.094;8.778;2023-04-12T12:09:43;11.50;84.60
24678;DHT22;12800;53.094;8.778;2023-04-12T12:12:12;11.50;84.80
24678;DHT22;12800;53.094;8.778;2023-04-12T12:14:38;11.50;85.10
24678;DHT22;12800;53.094;8.778;2023-04-12T12:17:13;11.40;85.00
24678;DHT22;12800;53.094;8.778;2023-04-12T12:19:40;11.40;85.20
24678;DHT22;12800;53.094;8.778;2023-04-12T12:22:20;11.40;85.40
24678;DHT22;12800;53.094;8.778;2023-04-12T12:24:59;11.40;85.60
24678;DHT22;12800;53.094;8.778;2023-04-12T12:27:36;11.30;85.80
24678;DHT22;12800;53.094;8.778;2023-04-12T12:30:05;11.30;86.20
24678;DHT22;12800;53.094;8.778;2023-04-12T12:32:35;11.30;86.20
24678;DHT22;12800;53.094;8.778;2023-04-12T12:35:02;11.30;86.40
24678;DHT22;12800;53.094;8.778;2023-04-12T12:37:29;11.30;86.70
24678;DHT22;12800;53.094;8.778;2023-04-12T12:40:11;11.30;86.80
24678;DHT22;12800;53.094;8.778;2023-04-12T12:45:12;11.40;87.30
24678;DHT22;12800;53.094;8.778;2023-04-12T12:47:46;11.40;87.30
24678;DHT22;12800;53.094;8.778;2023-04-12T12:50:12;11.50;87.30
24678;DHT22;12800;53.094;8.778;2023-04-12T12:52:38;11.50;87.20
24678;DHT22;12800;53.094;8.778;2023-04-12T12:55:04;11.60;87.00
24678;DHT22;12800;53.094;8.778;2023-04-12T12:57:30;11.70;86.50
24678;DHT22;12800;53.094;8.778;2023-04-12T12:59:56;11.80;86.50
24678;DHT22;12800;53.094;8.778;2023-04-12T13:02:21;11.90;86.60
24678;DHT22;12800;53.094;8.778;2023-04-12T13:04:47;12.00;86.70
24678;DHT22;12800;53.094;8.778;2023-04-12T13:07:13;12.10;86.60
24678;DHT22;12800;53.094;8.778;2023-04-12T13:09:38;12.10;86.30
24678;DHT22;12800;53.094;8.778;2023-04-12T13:12:04;12.10;86.00
24678;DHT22;12800;53.094;8.778;2023-04-12T13:14:30;12.20;86.10
24678;DHT22;12800;53.094;8.778;2023-04-12T13:16:56;12.20;86.00
24678;DHT22;12800;53.094;8.778;2023-04-12T13:19:22;12.30;86.00
24678;DHT22;12800;53.094;8.778;2023-04-12T13:21:47;12.30;85.80
24678;DHT22;12800;53.094;8.778;2023-04-12T13:24:13;12.30;85.70
24678;DHT22;12800;53.094;8.778;2023-04-12T13:26:38;12.40;85.70
24678;DHT22;12800;53.094;8.778;2023-04-12T13:29:05;12.40;85.70
24678;DHT22;12800;53.094;8.778;2023-04-12T13:31:31;12.40;85.60
24678;DHT22;12800;53.094;8.778;2023-04-12T13:33:56;12.40;85.40
24678;DHT22;12800;53.094;8.778;2023-04-12T13:36:22;12.50;85.60
24678;DHT22;12800;53.094;8.778;2023-04-12T13:38:47;12.60;86.30
24678;DHT22;12800;53.094;8.778;2023-04-12T13:41:13;12.60;85.40
24678;DHT22;12800;53.094;8.778;2023-04-12T13:43:39;12.70;85.60
24678;DHT22;12800;53.094;8.778;2023-04-12T13:46:05;12.80;85.60
24678;DHT22;12800;53.094;8.778;2023-04-12T13:48:31;12.80;85.60
24678;DHT22;12800;53.094;8.778;2023-04-12T13:50:57;12.90;85.70
24678;DHT22;12800;53.094;8.778;2023-04-12T13:53:24;13.00;85.70
24678;DHT22;12800;53.094;8.778;2023-04-12T13:55:49;13.20;85.70
24678;DHT22;12800;53.094;8.778;2023-04-12T13:58:15;13.30;85.50
24678;DHT22;12800;53.094;8.778;2023-04-12T14:00:41;13.30;85.20
24678;DHT22;12800;53.094;8.778;2023-04-12T14:03:06;13.50;85.20
24678;DHT22;12800;53.094;8.778;2023-04-12T14:05:32;13.60;84.80
24678;DHT22;12800;53.094;8.778;2023-04-12T14:07:58;13.60;84.20
24678;DHT22;12800;53.094;8.778;2023-04-12T14:10:23;13.60;84.00
24678;DHT22;12800;53.094;8.778;2023-04-12T14:12:49;13.60;83.80
24678;DHT22;12800;53.094;8.778;2023-04-12T14:15:15;13.60;83.60
24678;DHT22;12800;53.094;8.778;2023-04-12T14:17:40;13.50;83.70
24678;DHT22;12800;53.094;8.778;2023-04-12T14:20:07;13.50;83.60
24678;DHT22;12800;53.094;8.778;2023-04-12T14:22:35;13.50;83.80
24678;DHT22;12800;53.094;8.778;2023-04-12T14:25:01;13.50;84.00
24678;DHT22;12800;53.094;8.778;2023-04-12T14:27:27;13.50;84.00
24678;DHT22;12800;53.094;8.778;2023-04-12T14:29:52;13.50;83.90
24678;DHT22;12800;53.094;8.778;2023-04-12T14:32:18;13.50;83.80
24678;DHT22;12800;53.094;8.778;2023-04-12T14:34:44;13.40;83.50
24678;DHT22;12800;53.094;8.778;2023-04-12T14:37:10;13.40;83.50
24678;DHT22;12800;53.094;8.778;2023-04-12T14:39:36;13.40;83.50
24678;DHT22;12800;53.094;8.778;2023-04-12T14:42:02;13.30;83.20
24678;DHT22;12800;53.094;8.778;2023-04-12T14:44:28;13.20;83.30
24678;DHT22;12800;53.094;8.778;2023-04-12T14:46:53;13.20;83.40
24678;DHT22;12800;53.094;8.778;2023-04-12T14:49:19;13.10;83.60
24678;DHT22;12800;53.094;8.778;2023-04-12T14:51:45;13.00;83.50
24678;DHT22;12800;53.094;8.778;2023-04-12T14:54:11;13.00;83.50
24678;DHT22;12800;53.094;8.778;2023-04-12T14:56:36;13.00;83.90
24678;DHT22;12800;53.094;8.778;2023-04-12T14:59:02;13.00;84.10
24678;DHT22;12800;53.094;8.778;2023-04-12T15:01:28;13.00;84.10
24678;DHT22;12800;53.094;8.778;2023-04-12T15:03:54;12.90;84.30
24678;DHT22;12800;53.094;8.778;2023-04-12T15:06:22;12.90;84.40
24678;DHT22;12800;53.094;8.778;2023-04-12T15:08:49;13.00;84.70
24678;DHT22;12800;53.094;8.778;2023-04-12T15:11:19;13.20;85.20
24678;DHT22;12800;53.094;8.778;2023-04-12T15:13:46;13.30;84.90
24678;DHT22;12800;53.094;8.778;2023-04-12T15:16:13;13.40;84.40
24678;DHT22;12800;53.094;8.778;2023-04-12T15:18:39;13.50;84.40
24678;DHT22;12800;53.094;8.778;2023-04-12T15:21:09;13.50;84.30
24678;DHT22;12800;53.094;8.778;2023-04-12T15:23:35;13.60;84.10
24678;DHT22;12800;53.094;8.778;2023-04-12T15:26:01;13.60;84.00
24678;DHT22;12800;53.094;8.778;2023-04-12T15:28:28;13.70;83.90
24678;DHT22;12800;53.094;8.778;2023-04-12T15:30:54;13.70;83.80
24678;DHT22;12800;53.094;8.778;2023-04-12T15:33:20;13.70;83.50
24678;DHT22;12800;53.094;8.778;2023-04-12T15:35:47;13.70;83.40
24678;DHT22;12800;53.094;8.778;2023-04-12T15:38:14;13.60;83.40
24678;DHT22;12800;53.094;8.778;2023-04-12T15:40:43;13.60;83.40
24678;DHT22;12800;53.094;8.778;2023-04-12T15:43:08;13.50;83.30
24678;DHT22;12800;53.094;8.778;2023-04-12T15:45:34;13.50;83.30
24678;DHT22;12800;53.094;8.778;2023-04-12T15:48:00;13.50;83.20
24678;DHT22;12800;53.094;8.778;2023-04-12T15:50:26;13.40;83.20
24678;DHT22;12800;53.094;8.778;2023-04-12T15:52:52;13.30;83.30
24678;DHT22;12800;53.094;8.778;2023-04-12T15:55:19;13.30;83.30
24678;DHT22;12800;53.094;8.778;2023-04-12T15:57:46;13.30;83.50
24678;DHT22;12800;53.094;8.778;2023-04-12T16:00:13;13.30;83.80
24678;DHT22;12800;53.094;8.778;2023-04-12T16:02:49;13.30;83.90
24678;DHT22;12800;53.094;8.778;2023-04-12T16:05:18;13.30;83.70
24678;DHT22;12800;53.094;8.778;2023-04-12T16:07:44;13.20;83.70
24678;DHT22;12800;53.094;8.778;2023-04-12T16:10:10;13.20;83.60
24678;DHT22;12800;53.094;8.778;2023-04-12T16:12:37;13.20;83.70
24678;DHT22;12800;53.094;8.778;2023-04-12T16:15:03;13.20;83.90
24678;DHT22;12800;53.094;8.778;2023-04-12T16:17:28;13.20;84.20